createdAt,value
2024-01-12T00:01:51.255Z,83.50
2024-01-12T00:04:17.858Z,86.82
2024-01-12T00:06:44.458Z,92.20
2024-01-12T00:09:12.874Z,85.50
2024-01-12T00:11:39.427Z,83.88
2024-01-12T00:14:06.025Z,74.93
2024-01-12T00:16:32.416Z,79.80
2024-01-12T00:18:58.914Z,77.13
2024-01-12T00:21:25.522Z,78.68
2024-01-12T00:23:52.339Z,72.45
2024-01-12T00:26:18.938Z,73.68
2024-01-12T00:28:45.400Z,77.38
2024-01-12T00:31:12.076Z,75.95
2024-01-12T00:33:38.650Z,74.32
2024-01-12T00:36:05.454Z,81.22
2024-01-12T00:38:32.094Z,75.60
2024-01-12T00:40:59.081Z,78.68
2024-01-12T00:43:25.537Z,77.15
2024-01-12T00:45:53.250Z,76.53
2024-01-12T00:48:19.875Z,75.88
2024-01-12T00:50:49.176Z,75.53
2024-01-12T00:53:15.714Z,83.95
2024-01-12T00:55:42.341Z,85.88
2024-01-12T00:58:08.891Z,84.00
2024-01-12T01:00:35.408Z,83.03
2024-01-12T01:03:05.119Z,86.95
2024-01-12T01:05:32.001Z,82.95
2024-01-12T01:07:58.653Z,82.90
2024-01-12T01:10:25.073Z,87.88
2024-01-12T01:12:51.732Z,81.65
2024-01-12T01:15:18.351Z,75.15
2024-01-12T01:17:44.855Z,82.28
2024-01-12T01:20:13.007Z,79.72
2024-01-12T01:22:39.485Z,85.22
2024-01-12T01:25:07.590Z,87.85
2024-01-12T01:27:34.133Z,79.65
2024-01-12T01:30:01.408Z,75.28
2024-01-12T01:32:28.281Z,70.65
2024-01-12T01:34:54.992Z,87.07
2024-01-12T01:37:21.532Z,69.38
2024-01-12T01:39:48.063Z,85.82
2024-01-12T01:42:14.513Z,84.68
2024-01-12T01:44:40.959Z,88.50
2024-01-12T01:47:07.768Z,80.32
2024-01-12T01:49:35.423Z,82.22
2024-01-12T01:52:02.314Z,70.78
2024-01-12T01:54:29.452Z,81.70
2024-01-12T01:56:57.203Z,72.85
2024-01-12T01:59:23.875Z,73.07
2024-01-12T02:01:50.308Z,68.43
2024-01-12T02:04:17.390Z,58.40
2024-01-12T02:06:46.822Z,70.57
2024-01-12T02:09:13.497Z,74.07
2024-01-12T02:11:40.042Z,75.35
2024-01-12T02:14:08.505Z,63.90
2024-01-12T02:16:36.095Z,74.32
2024-01-12T02:19:02.654Z,68.55
2024-01-12T02:21:30.397Z,65.20
2024-01-12T02:23:56.937Z,70.07
2024-01-12T02:26:24.149Z,77.78
2024-01-12T02:28:50.786Z,84.22
2024-01-12T02:31:17.566Z,70.95
2024-01-12T02:33:44.387Z,89.05
2024-01-12T02:36:10.812Z,74.20
2024-01-12T02:38:37.459Z,78.00
2024-01-12T02:41:03.996Z,86.45
2024-01-12T02:43:30.420Z,74.28
2024-01-12T02:45:57.095Z,90.43
2024-01-12T02:48:23.618Z,78.45
2024-01-12T02:50:50.529Z,69.13
2024-01-12T02:53:18.490Z,75.65
2024-01-12T02:55:44.959Z,82.95
2024-01-12T02:58:11.361Z,75.47
2024-01-12T03:00:38.087Z,69.97
2024-01-12T03:03:04.763Z,88.90
2024-01-12T03:05:32.623Z,74.65
2024-01-12T03:07:59.261Z,77.68
2024-01-12T03:10:25.684Z,72.55
2024-01-12T03:12:52.407Z,77.22
2024-01-12T03:15:19.241Z,71.88
2024-01-12T03:17:45.773Z,75.68
2024-01-12T03:20:12.506Z,69.50
2024-01-12T03:22:39.018Z,80.18
2024-01-12T03:25:05.792Z,84.20
2024-01-12T03:27:34.711Z,76.63
2024-01-12T03:32:28.010Z,76.40
2024-01-12T03:34:54.936Z,74.93
2024-01-12T03:37:21.402Z,71.55
2024-01-12T03:39:47.846Z,67.65
2024-01-12T03:42:14.323Z,74.35
2024-01-12T03:44:41.110Z,84.97
2024-01-12T03:47:07.702Z,75.40
2024-01-12T03:49:34.666Z,75.03
2024-01-12T03:52:14.568Z,73.10
2024-01-12T03:54:42.744Z,69.18
2024-01-12T03:57:09.350Z,74.65
2024-01-12T03:59:35.934Z,84.28
2024-01-12T04:02:02.442Z,72.60
2024-01-12T04:04:28.989Z,77.53
2024-01-12T04:06:55.514Z,85.85
2024-01-12T04:09:22.120Z,77.32
2024-01-12T04:11:48.974Z,71.95
2024-01-12T04:14:15.742Z,77.05
2024-01-12T04:16:42.456Z,75.38
2024-01-12T04:19:08.964Z,76.18
2024-01-12T04:21:35.500Z,74.75
2024-01-12T04:24:02.219Z,74.95
2024-01-12T04:26:28.973Z,67.10
2024-01-12T04:28:55.791Z,67.07
2024-01-12T04:31:22.275Z,72.75
2024-01-12T04:33:48.867Z,71.63
2024-01-12T04:36:15.420Z,71.78
2024-01-12T04:38:41.901Z,59.55
2024-01-12T04:41:08.408Z,79.25
2024-01-12T04:43:34.892Z,68.32
2024-01-12T04:46:01.361Z,75.35
2024-01-12T04:48:27.940Z,73.55
2024-01-12T04:50:54.664Z,71.00
2024-01-12T04:53:22.135Z,63.50
2024-01-12T04:55:50.396Z,68.85
2024-01-12T04:58:16.893Z,76.80
2024-01-12T05:00:43.509Z,60.95
2024-01-12T05:03:11.215Z,66.28
2024-01-12T05:05:39.770Z,76.78
2024-01-12T05:08:06.499Z,63.25
2024-01-12T05:10:33.186Z,70.88
2024-01-12T05:13:01.663Z,98.13
2024-01-12T05:15:28.094Z,86.80
2024-01-12T05:17:54.641Z,67.68
2024-01-12T05:20:22.663Z,77.53
2024-01-12T05:22:49.190Z,67.57
2024-01-12T05:25:15.759Z,77.07
2024-01-12T05:27:42.272Z,72.05
2024-01-12T05:30:09.116Z,68.95
2024-01-12T05:32:35.947Z,73.03
2024-01-12T05:35:02.661Z,73.78
2024-01-12T05:37:29.114Z,67.07
2024-01-12T05:39:55.703Z,52.53
2024-01-12T05:42:22.128Z,63.40
2024-01-12T05:44:48.765Z,61.63
2024-01-12T05:47:15.527Z,66.78
2024-01-12T05:49:42.371Z,73.55
2024-01-12T05:52:08.832Z,68.63
2024-01-12T05:54:35.296Z,76.78
2024-01-12T05:57:01.879Z,63.33
2024-01-12T05:59:28.484Z,75.13
2024-01-12T06:01:55.556Z,72.07
2024-01-12T06:04:22.202Z,82.90
2024-01-12T06:06:49.690Z,71.15
2024-01-12T06:09:16.482Z,74.60
2024-01-12T06:11:44.194Z,65.15
2024-01-12T06:14:11.371Z,76.45
2024-01-12T06:16:38.173Z,66.72
2024-01-12T06:19:04.819Z,73.00
2024-01-12T06:21:31.496Z,69.38
2024-01-12T06:23:57.986Z,70.22
2024-01-12T06:26:24.857Z,62.30
2024-01-12T06:28:51.254Z,70.97
2024-01-12T06:31:17.737Z,66.20
2024-01-12T06:33:44.553Z,65.43
2024-01-12T06:36:11.161Z,66.72
2024-01-12T06:38:37.840Z,64.93
2024-01-12T06:41:04.395Z,61.78
2024-01-12T06:43:30.939Z,70.05
2024-01-12T06:45:57.446Z,68.95
2024-01-12T06:48:23.983Z,69.22
2024-01-12T06:50:50.794Z,66.40
2024-01-12T06:53:17.367Z,71.70
2024-01-12T06:55:43.986Z,69.60
2024-01-12T06:58:10.485Z,72.63
2024-01-12T07:00:37.241Z,62.45
2024-01-12T07:03:04.125Z,62.10
2024-01-12T07:05:30.746Z,58.28
2024-01-12T07:07:57.214Z,67.93
2024-01-12T07:10:23.937Z,66.07
2024-01-12T07:12:53.305Z,67.47
2024-01-12T07:15:21.313Z,61.30
2024-01-12T07:17:50.479Z,61.22
2024-01-12T07:20:18.598Z,61.78
2024-01-12T07:22:46.203Z,56.00
2024-01-12T07:25:12.856Z,66.78
2024-01-12T07:27:39.328Z,63.17
2024-01-12T07:30:06.757Z,62.45
2024-01-12T07:32:35.769Z,61.08
2024-01-12T07:35:02.636Z,65.43
2024-01-12T07:37:29.175Z,59.95
2024-01-12T07:39:55.671Z,67.78
2024-01-12T07:42:22.108Z,59.47
2024-01-12T07:44:48.688Z,75.78
2024-01-12T07:47:15.489Z,68.72
2024-01-12T07:49:42.162Z,80.07
2024-01-12T07:52:09.810Z,75.80
2024-01-12T07:54:37.941Z,74.00
2024-01-12T07:57:04.590Z,71.65
2024-01-12T07:59:31.146Z,69.07
2024-01-12T08:01:57.837Z,72.50
2024-01-12T08:04:24.382Z,71.70
2024-01-12T08:06:51.042Z,61.67
2024-01-12T08:09:17.577Z,63.40
2024-01-12T08:11:44.386Z,65.18
2024-01-12T08:14:11.078Z,63.10
2024-01-12T08:16:37.554Z,63.13
2024-01-12T08:19:04.170Z,66.43
2024-01-12T08:21:41.101Z,65.10
2024-01-12T08:24:15.401Z,65.53
2024-01-12T08:26:41.934Z,77.53
2024-01-12T08:29:08.348Z,64.20
2024-01-12T08:31:34.835Z,60.00
2024-01-12T08:34:01.714Z,69.80
2024-01-12T08:36:28.281Z,68.07
2024-01-12T08:38:54.845Z,67.82
2024-01-12T08:41:21.581Z,63.47
2024-01-12T08:43:48.080Z,61.00
2024-01-12T08:46:14.553Z,67.68
2024-01-12T08:48:43.068Z,64.35
2024-01-12T08:51:11.412Z,59.38
2024-01-12T08:53:38.213Z,57.65
2024-01-12T08:56:06.538Z,53.35
2024-01-12T08:58:34.851Z,73.85
2024-01-12T09:01:02.451Z,58.63
2024-01-12T09:03:29.165Z,56.55
2024-01-12T09:05:55.866Z,55.90
2024-01-12T09:08:22.364Z,54.53
2024-01-12T09:10:48.871Z,53.25
2024-01-12T09:13:15.499Z,62.88
2024-01-12T09:15:42.091Z,54.67
2024-01-12T09:18:09.513Z,55.15
2024-01-12T09:20:37.660Z,55.95
2024-01-12T09:23:04.554Z,52.05
2024-01-12T09:25:32.290Z,56.85
2024-01-12T09:27:58.884Z,50.85
2024-01-12T09:30:25.556Z,52.67
2024-01-12T09:32:52.195Z,58.13
2024-01-12T09:35:18.857Z,59.42
2024-01-12T09:37:45.389Z,51.22
2024-01-12T09:40:12.676Z,55.15
2024-01-12T09:42:43.197Z,50.08
2024-01-12T09:45:19.242Z,55.92
2024-01-12T09:47:49.607Z,56.88
2024-01-12T09:50:17.345Z,56.22
2024-01-12T09:52:43.973Z,51.30
2024-01-12T09:55:10.761Z,47.22
2024-01-12T09:57:39.485Z,52.80
2024-01-12T10:00:10.009Z,55.63
2024-01-12T10:02:36.686Z,55.17
2024-01-12T10:05:03.168Z,56.65
2024-01-12T10:07:29.882Z,56.05
2024-01-12T10:09:56.264Z,55.05
2024-01-12T10:12:22.900Z,61.38
2024-01-12T10:14:59.831Z,55.22
2024-01-12T10:17:26.367Z,49.13
2024-01-12T10:19:52.901Z,49.60
2024-01-12T10:22:19.534Z,57.00
2024-01-12T10:24:46.249Z,55.13
2024-01-12T10:27:14.088Z,58.85
2024-01-12T10:29:40.592Z,60.90
2024-01-12T10:32:07.680Z,61.85
2024-01-12T10:34:35.422Z,54.47
2024-01-12T10:37:03.241Z,63.05
2024-01-12T10:39:35.302Z,54.15
2024-01-12T10:42:03.094Z,64.47
2024-01-12T10:44:36.130Z,62.90
2024-01-12T10:47:07.053Z,60.00
2024-01-12T10:50:05.681Z,60.60
2024-01-12T10:53:11.055Z,59.67
2024-01-12T10:55:38.923Z,58.38
2024-01-12T10:58:06.626Z,62.38
2024-01-12T11:00:33.743Z,59.72
2024-01-12T11:03:01.706Z,65.90
2024-01-12T11:05:29.368Z,60.60
2024-01-12T11:08:00.591Z,60.15
2024-01-12T11:10:28.989Z,49.53
2024-01-12T11:12:59.332Z,55.33
2024-01-12T11:15:27.453Z,52.72
2024-01-12T11:17:55.000Z,51.78
2024-01-12T11:20:22.130Z,46.88
2024-01-12T11:22:50.042Z,52.45
2024-01-12T11:25:19.495Z,50.95
2024-01-12T11:27:51.059Z,48.42
2024-01-12T11:30:19.772Z,50.50
2024-01-12T11:32:47.596Z,49.80
2024-01-12T11:35:21.576Z,51.25
2024-01-12T11:38:01.161Z,47.78
2024-01-12T11:40:28.839Z,48.00
2024-01-12T11:42:56.016Z,55.53
2024-01-12T11:45:22.816Z,52.95
2024-01-12T11:47:49.363Z,50.97
2024-01-12T11:50:17.204Z,54.78
2024-01-12T11:52:44.010Z,50.28
2024-01-12T11:55:11.747Z,53.10
2024-01-12T11:57:39.281Z,51.95
2024-01-12T12:00:07.538Z,49.42
2024-01-12T12:02:36.410Z,54.97
2024-01-12T12:05:13.018Z,59.97
2024-01-12T12:07:41.863Z,51.03
2024-01-12T12:10:10.745Z,58.33
2024-01-12T12:12:38.632Z,55.35
2024-01-12T12:15:06.383Z,53.50
2024-01-12T12:17:37.284Z,52.83
2024-01-12T12:20:12.166Z,49.58
2024-01-12T12:25:10.958Z,52.03
2024-01-12T12:27:42.067Z,57.17
2024-01-12T12:30:11.959Z,49.30
2024-01-12T12:32:41.530Z,52.75
2024-01-12T12:35:15.225Z,53.33
2024-01-12T12:37:45.651Z,56.33
2024-01-12T12:40:12.820Z,58.03
2024-01-12T12:42:40.450Z,53.85
2024-01-12T12:45:08.078Z,53.67
2024-01-12T12:47:35.405Z,55.20
2024-01-12T12:50:02.493Z,56.50
2024-01-12T12:52:31.772Z,55.00
2024-01-12T12:54:58.357Z,54.75
2024-01-12T12:57:24.771Z,56.58
2024-01-12T12:59:51.760Z,59.38
2024-01-12T13:02:18.150Z,57.25
2024-01-12T13:04:44.573Z,57.05
2024-01-12T13:07:11.104Z,59.67
2024-01-12T13:09:38.056Z,58.33
2024-01-12T13:12:05.328Z,57.72
2024-01-12T13:14:32.446Z,51.55
2024-01-12T13:16:59.414Z,55.45
2024-01-12T13:19:27.093Z,52.20
2024-01-12T13:21:54.607Z,57.33
2024-01-12T13:24:21.148Z,59.40
2024-01-12T13:26:47.845Z,62.20
2024-01-12T13:29:14.281Z,54.35
2024-01-12T13:31:43.836Z,56.17
2024-01-12T13:34:12.592Z,55.47
2024-01-12T13:36:41.789Z,58.13
2024-01-12T13:39:08.994Z,59.40
2024-01-12T13:41:35.880Z,56.17
2024-01-12T13:44:04.074Z,59.47
2024-01-12T13:48:57.760Z,59.17
2024-01-12T13:51:24.638Z,65.43
2024-01-12T13:53:51.745Z,59.10
2024-01-12T13:56:18.150Z,58.67
2024-01-12T13:58:46.547Z,64.75
2024-01-12T14:01:15.377Z,62.50
2024-01-12T14:03:42.804Z,58.53
2024-01-12T14:06:10.415Z,66.38
2024-01-12T14:08:38.262Z,62.53
2024-01-12T14:11:04.883Z,58.05
2024-01-12T14:13:31.823Z,60.10
2024-01-12T14:15:59.075Z,58.38
2024-01-12T14:18:25.644Z,60.92
2024-01-12T14:20:54.138Z,59.35
2024-01-12T14:23:20.870Z,70.20
2024-01-12T14:25:47.685Z,61.22
2024-01-12T14:28:23.206Z,68.53
2024-01-12T14:30:55.672Z,60.90
2024-01-12T14:33:22.374Z,58.05
2024-01-12T14:35:49.172Z,61.88
2024-01-12T14:38:15.698Z,61.83
2024-01-12T14:40:42.318Z,61.58
2024-01-12T14:43:08.767Z,64.57
2024-01-12T14:45:35.264Z,58.22
2024-01-12T14:48:08.793Z,59.30
2024-01-12T14:50:37.758Z,62.78
2024-01-12T14:53:04.575Z,67.30
2024-01-12T14:55:31.214Z,59.70
2024-01-12T14:57:57.659Z,55.45
2024-01-12T15:00:25.788Z,62.35
2024-01-12T15:02:52.512Z,63.50
2024-01-12T15:05:19.010Z,57.38
2024-01-12T15:07:46.210Z,55.78
2024-01-12T15:10:12.759Z,60.58
2024-01-12T15:12:40.732Z,62.13
2024-01-12T15:15:07.641Z,63.60
2024-01-12T15:17:34.437Z,57.60
2024-01-12T15:20:01.175Z,65.65
2024-01-12T15:22:27.660Z,65.80
2024-01-12T15:24:54.422Z,68.70
2024-01-12T15:27:21.588Z,73.57
2024-01-12T15:29:48.083Z,75.00
2024-01-12T15:32:14.577Z,75.47
2024-01-12T15:34:41.316Z,66.40
2024-01-12T15:37:08.033Z,66.03
2024-01-12T15:39:34.548Z,74.70
2024-01-12T15:42:01.075Z,68.95
2024-01-12T15:44:27.512Z,74.70
2024-01-12T15:46:54.013Z,68.45
2024-01-12T15:49:20.709Z,69.10
2024-01-12T15:51:48.502Z,77.78
2024-01-12T15:54:15.385Z,69.78
2024-01-12T15:56:42.197Z,71.63
2024-01-12T15:59:08.943Z,74.32
2024-01-12T16:01:35.357Z,75.60
2024-01-12T16:04:01.911Z,73.15
2024-01-12T16:06:28.613Z,71.55
2024-01-12T16:08:56.299Z,77.88
2024-01-12T16:11:23.550Z,80.15
2024-01-12T16:13:50.151Z,77.75
2024-01-12T16:16:16.630Z,79.88
2024-01-12T16:18:43.430Z,94.63
2024-01-12T16:21:10.953Z,97.50
2024-01-12T16:23:40.516Z,91.75
2024-01-12T16:26:07.662Z,99.32
2024-01-12T16:28:34.119Z,86.22
2024-01-12T16:31:00.900Z,80.10
2024-01-12T16:33:28.890Z,84.00
2024-01-12T16:35:55.504Z,85.28
2024-01-12T16:38:21.993Z,87.72
2024-01-12T16:40:48.458Z,89.85
2024-01-12T16:43:14.883Z,78.57
2024-01-12T16:45:41.291Z,82.70
2024-01-12T16:48:08.191Z,95.15
2024-01-12T16:50:34.820Z,84.38
2024-01-12T16:53:01.260Z,85.05
2024-01-12T16:55:28.101Z,73.65
2024-01-12T16:57:54.591Z,78.80
2024-01-12T17:00:21.498Z,80.57
2024-01-12T17:02:48.150Z,90.00
2024-01-12T17:05:14.782Z,92.68
2024-01-12T17:07:41.296Z,90.35
2024-01-12T17:10:09.243Z,101.00
2024-01-12T17:12:36.563Z,106.82
2024-01-12T17:15:03.577Z,92.30
2024-01-12T17:17:31.354Z,82.72
2024-01-12T17:19:58.717Z,82.78
2024-01-12T17:22:25.574Z,79.88
2024-01-12T17:24:53.415Z,75.50
2024-01-12T17:27:20.082Z,79.00
2024-01-12T17:29:47.541Z,89.00
2024-01-12T17:32:14.169Z,79.68
2024-01-12T17:34:41.025Z,78.78
2024-01-12T17:37:07.665Z,73.88
2024-01-12T17:39:34.651Z,74.00
2024-01-12T17:42:01.205Z,79.30
2024-01-12T17:44:27.762Z,77.80
2024-01-12T17:46:54.212Z,82.63
2024-01-12T17:49:22.098Z,80.60
2024-01-12T17:51:49.277Z,85.07
2024-01-12T17:54:15.932Z,80.03
2024-01-12T17:56:42.519Z,87.38
2024-01-12T17:59:10.594Z,84.82
2024-01-12T18:01:37.018Z,79.32
2024-01-12T18:04:03.819Z,85.80
2024-01-12T18:06:30.881Z,75.97
2024-01-12T18:08:59.249Z,77.28
2024-01-12T18:11:25.843Z,82.82
2024-01-12T18:13:52.314Z,76.68
2024-01-12T18:16:18.935Z,83.47
2024-01-12T18:18:45.686Z,82.65
2024-01-12T18:21:13.482Z,72.95
2024-01-12T18:23:40.282Z,79.78
2024-01-12T18:26:06.741Z,76.22
2024-01-12T18:28:33.192Z,84.55
2024-01-12T18:30:59.657Z,82.07
2024-01-12T18:33:26.281Z,83.47
2024-01-12T18:35:52.924Z,82.78
2024-01-12T18:38:19.504Z,80.50
2024-01-12T18:40:47.201Z,76.22
2024-01-12T18:43:13.857Z,69.40
2024-01-12T18:45:41.167Z,74.00
2024-01-12T18:48:07.838Z,74.28
2024-01-12T18:50:34.356Z,79.38
2024-01-12T18:53:00.936Z,79.53
2024-01-12T18:55:27.347Z,75.30
2024-01-12T18:57:55.007Z,75.68
2024-01-12T19:00:21.913Z,81.60
2024-01-12T19:02:48.740Z,85.30
2024-01-12T19:05:15.261Z,88.90
2024-01-12T19:07:41.663Z,82.00
2024-01-12T19:10:09.195Z,78.75
2024-01-12T19:12:35.948Z,86.90
2024-01-12T19:15:02.627Z,87.65
2024-01-12T19:17:29.558Z,87.63
2024-01-12T19:19:57.863Z,89.80
2024-01-12T19:22:24.441Z,85.72
2024-01-12T19:24:51.039Z,96.05
2024-01-12T19:27:17.611Z,98.63
2024-01-12T19:29:46.933Z,102.78
2024-01-12T19:32:14.553Z,107.35
2024-01-12T19:34:42.001Z,103.15
2024-01-12T19:37:08.642Z,91.97
2024-01-12T19:39:35.481Z,96.20
2024-01-12T19:42:02.061Z,99.82
2024-01-12T19:44:28.687Z,106.78
2024-01-12T19:46:55.274Z,87.95
2024-01-12T19:49:21.837Z,96.90
2024-01-12T19:51:48.341Z,106.07
2024-01-12T19:54:14.786Z,81.95
2024-01-12T19:56:41.252Z,81.20
2024-01-12T19:59:07.845Z,87.22
2024-01-12T20:01:34.245Z,79.68
2024-01-12T20:04:01.793Z,79.07
2024-01-12T20:06:28.690Z,90.38
2024-01-12T20:08:55.303Z,90.28
2024-01-12T20:11:21.921Z,74.57
2024-01-12T20:13:48.384Z,77.85
2024-01-12T20:16:15.993Z,86.00
2024-01-12T20:18:42.804Z,71.55
2024-01-12T20:21:12.835Z,77.55
2024-01-12T20:23:39.635Z,81.35
2024-01-12T20:26:06.904Z,75.93
2024-01-12T20:28:34.025Z,75.97
2024-01-12T20:31:00.652Z,73.63
2024-01-12T20:33:27.223Z,72.20
2024-01-12T20:35:53.756Z,70.30
2024-01-12T20:38:20.204Z,70.80
2024-01-12T20:40:46.673Z,70.28
2024-01-12T20:43:13.110Z,81.40
2024-01-12T20:45:41.257Z,80.72
2024-01-12T20:48:09.045Z,83.72
2024-01-12T20:50:35.513Z,77.90
2024-01-12T20:53:01.956Z,81.30
2024-01-12T20:55:28.502Z,84.82
2024-01-12T20:57:54.982Z,76.32
2024-01-12T21:00:21.675Z,79.53
2024-01-12T21:02:48.267Z,68.20
2024-01-12T21:05:15.809Z,76.40
2024-01-12T21:07:42.332Z,77.53
2024-01-12T21:10:09.457Z,70.35
2024-01-12T21:12:37.344Z,61.20
2024-01-12T21:15:04.606Z,71.47
2024-01-12T21:17:31.139Z,87.97
2024-01-12T21:19:57.955Z,84.43
2024-01-12T21:22:30.189Z,80.50
2024-01-12T21:25:05.268Z,77.95
2024-01-12T21:27:34.826Z,82.45
2024-01-12T21:30:01.423Z,76.55
2024-01-12T21:32:29.330Z,76.20
2024-01-12T21:34:55.990Z,77.82
2024-01-12T21:37:22.535Z,82.50
2024-01-12T21:39:49.237Z,76.35
2024-01-12T21:42:15.849Z,92.07
2024-01-12T21:44:46.184Z,88.35
2024-01-12T21:47:14.368Z,91.25
2024-01-12T21:49:40.911Z,90.90
2024-01-12T21:52:07.554Z,101.45
2024-01-12T21:54:34.548Z,77.97
2024-01-12T21:57:01.457Z,84.50
2024-01-12T21:59:28.087Z,80.38
2024-01-12T22:01:54.657Z,84.60
2024-01-12T22:04:21.153Z,89.32
2024-01-12T22:06:48.620Z,86.97
2024-01-12T22:09:15.357Z,92.88
2024-01-12T22:11:43.867Z,75.72
2024-01-12T22:14:10.467Z,91.90
2024-01-12T22:16:36.990Z,76.15
2024-01-12T22:19:04.723Z,86.88
2024-01-12T22:21:36.072Z,78.38
2024-01-12T22:24:08.935Z,83.90
2024-01-12T22:26:35.712Z,79.30
2024-01-12T22:29:02.211Z,87.38
2024-01-12T22:31:28.649Z,71.13
2024-01-12T22:33:55.204Z,73.35
2024-01-12T22:36:21.786Z,84.55
2024-01-12T22:38:48.299Z,83.35
2024-01-12T22:41:14.785Z,79.97
2024-01-12T22:43:41.542Z,78.85
2024-01-12T22:46:08.164Z,92.18
2024-01-12T22:48:34.754Z,76.03
2024-01-12T22:51:01.416Z,89.00
2024-01-12T22:53:28.110Z,79.55
2024-01-12T22:55:54.753Z,71.85
2024-01-12T22:58:21.238Z,67.43
2024-01-12T23:00:48.691Z,78.95
2024-01-12T23:03:15.870Z,89.93
2024-01-12T23:05:43.839Z,78.38
2024-01-12T23:08:10.557Z,85.78
2024-01-12T23:10:37.071Z,76.45
2024-01-12T23:13:03.515Z,72.80
2024-01-12T23:15:29.980Z,79.57
2024-01-12T23:17:56.585Z,78.10
2024-01-12T23:20:23.413Z,86.07
2024-01-12T23:22:50.089Z,79.03
2024-01-12T23:25:16.637Z,84.25
2024-01-12T23:27:44.431Z,76.25
2024-01-12T23:30:11.431Z,79.75
2024-01-12T23:32:38.418Z,74.07
2024-01-12T23:35:06.563Z,80.50
2024-01-12T23:37:33.224Z,84.47
2024-01-12T23:40:00.292Z,75.82
2024-01-12T23:42:26.735Z,74.88
2024-01-12T23:44:53.221Z,74.13
2024-01-12T23:47:19.791Z,82.40
2024-01-12T23:49:46.441Z,80.78
2024-01-12T23:52:13.054Z,74.88
2024-01-12T23:54:39.617Z,88.40
2024-01-12T23:57:06.183Z,78.18
2024-01-12T23:59:32.882Z,81.15
